TimeCST,TemperatureF,Dew PointF,Humidity,Sea Level PressureIn,VisibilityMPH,Wind Direction,Wind SpeedMPH,Gust SpeedMPH,PrecipitationIn,Events,Conditions,WindDirDegrees,DateUTC
12:55 AM,50.4,43.0,76,30.11,10.0,South,15.0,-,N/A,,Mostly Cloudy,170,2012-11-19 06:55:00
1:55 AM,49.6,43.7,80,30.09,10.0,SSE,13.8,-,N/A,,Partly Cloudy,160,2012-11-19 07:55:00
2:55 AM,49.6,43.5,79,30.08,10.0,SSE,13.8,-,N/A,,Clear,160,2012-11-19 08:55:00
3:55 AM,49.5,42.6,77,30.08,10.0,SSE,12.7,-,N/A,,Clear,160,2012-11-19 09:55:00
4:55 AM,48.7,42.1,78,30.08,10.0,South,13.8,-,N/A,,Clear,170,2012-11-19 10:55:00
5:55 AM,48.7,41.5,76,30.09,10.0,South,12.7,-,N/A,,Clear,170,2012-11-19 11:55:00
6:55 AM,47.3,41.2,79,30.10,10.0,SSE,9.2,-,N/A,,Clear,150,2012-11-19 12:55:00
7:55 AM,46.6,41.7,83,30.12,10.0,SSE,8.1,-,N/A,,Clear,150,2012-11-19 13:55:00
8:55 AM,52.5,42.6,69,30.14,10.0,South,11.5,-,N/A,,Clear,170,2012-11-19 14:55:00
9:55 AM,54.9,44.1,67,30.14,10.0,South,10.4,-,N/A,,Clear,190,2012-11-19 15:55:00
10:55 AM,59.4,46.6,63,30.14,10.0,SSW,6.9,-,N/A,,Clear,200,2012-11-19 16:55:00
11:55 AM,61.7,48.2,61,30.12,10.0,SW,3.5,-,N/A,,Clear,230,2012-11-19 17:55:00
12:55 PM,64.8,49.6,58,30.10,10.0,SW,3.5,-,N/A,,Clear,220,2012-11-19 18:55:00
1:55 PM,66.4,49.1,54,30.09,10.0,SSW,3.5,-,N/A,,Clear,210,2012-11-19 19:55:00
2:55 PM,68.2,49.1,50,30.07,10.0,South,5.8,-,N/A,,Clear,190,2012-11-19 20:55:00
3:55 PM,67.6,50.5,54,30.08,10.0,South,9.2,-,N/A,,Clear,170,2012-11-19 21:55:00
4:55 PM,63.7,50.9,63,30.10,10.0,South,6.9,-,N/A,,Clear,180,2012-11-19 22:55:00
5:55 PM,59.2,50.7,74,30.12,10.0,South,5.8,-,N/A,,Clear,190,2012-11-19 23:55:00
6:13 PM,57.2,50.0,77,30.13,8.0,South,4.6,-,N/A,,Clear,190,2012-11-20 00:13:00
6:14 PM,57.2,50.0,77,30.13,8.0,South,4.6,-,N/A,,Clear,190,2012-11-20 00:14:00
6:55 PM,55.4,50.5,84,30.14,9.0,South,4.6,-,N/A,,Clear,190,2012-11-20 00:55:00
7:55 PM,55.8,51.6,86,30.14,10.0,SSW,4.6,-,N/A,,Clear,200,2012-11-20 01:55:00
8:55 PM,56.5,52.7,87,30.15,10.0,SSW,4.6,-,N/A,,Clear,210,2012-11-20 02:55:00
9:55 PM,53.4,52.2,95,30.15,10.0,SSW,5.8,-,N/A,,Clear,200,2012-11-20 03:55:00
10:55 PM,51.4,51.4,100,30.15,8.0,WSW,3.5,-,N/A,,Clear,240,2012-11-20 04:55:00
11:55 PM,52.5,52.2,99,30.16,10.0,WSW,5.8,-,N/A,,Clear,240,2012-11-20 05:55:00